sensor_id;sensor_type;location;lat;lon;timestamp;P1;durP1;ratioP1;P2;durP2;ratioP2
74335;SDS011;62755;-33.398;-70.572;2022-10-13T00:01:43;19.25;;;5.10;;
74335;SDS011;62755;-33.398;-70.572;2022-10-13T00:04:13;19.85;;;4.25;;
74335;SDS011;62755;-33.398;-70.572;2022-10-13T00:06:42;13.85;;;3.38;;
74335;SDS011;62755;-33.398;-70.572;2022-10-13T00:09:12;15.45;;;3.95;;
74335;SDS011;62755;-33.398;-70.572;2022-10-13T00:11:43;18.98;;;3.72;;
74335;SDS011;62755;-33.398;-70.572;2022-10-13T00:14:12;13.95;;;3.70;;
74335;SDS011;62755;-33.398;-70.572;2022-10-13T00:16:42;16.73;;;3.88;;
74335;SDS011;62755;-33.398;-70.572;2022-10-13T00:19:12;16.48;;;4.07;;
74335;SDS011;62755;-33.398;-70.572;2022-10-13T00:21:41;22.08;;;4.60;;
74335;SDS011;62755;-33.398;-70.572;2022-10-13T00:24:10;15.95;;;3.35;;
74335;SDS011;62755;-33.398;-70.572;2022-10-13T00:26:42;12.90;;;3.85;;
74335;SDS011;62755;-33.398;-70.572;2022-10-13T00:29:11;19.13;;;4.03;;
74335;SDS011;62755;-33.398;-70.572;2022-10-13T00:31:42;14.45;;;3.70;;
74335;SDS011;62755;-33.398;-70.572;2022-10-13T00:34:11;19.90;;;4.07;;
74335;SDS011;62755;-33.398;-70.572;2022-10-13T00:36:41;24.58;;;4.43;;
74335;SDS011;62755;-33.398;-70.572;2022-10-13T00:39:10;15.48;;;5.43;;
74335;SDS011;62755;-33.398;-70.572;2022-10-13T00:41:42;17.63;;;5.93;;
74335;SDS011;62755;-33.398;-70.572;2022-10-13T00:47:13;15.05;;;5.07;;
74335;SDS011;62755;-33.398;-70.572;2022-10-13T00:49:42;20.58;;;5.93;;
74335;SDS011;62755;-33.398;-70.572;2022-10-13T00:52:12;14.75;;;4.25;;
74335;SDS011;62755;-33.398;-70.572;2022-10-13T00:54:44;19.25;;;4.22;;
74335;SDS011;62755;-33.398;-70.572;2022-10-13T00:57:15;10.52;;;4.47;;
74335;SDS011;62755;-33.398;-70.572;2022-10-13T00:59:47;20.67;;;4.57;;
74335;SDS011;62755;-33.398;-70.572;2022-10-13T01:02:17;16.20;;;3.80;;
74335;SDS011;62755;-33.398;-70.572;2022-10-13T01:04:47;15.60;;;3.38;;
74335;SDS011;62755;-33.398;-70.572;2022-10-13T01:07:17;15.18;;;2.92;;
74335;SDS011;62755;-33.398;-70.572;2022-10-13T01:09:47;21.52;;;3.40;;
74335;SDS011;62755;-33.398;-70.572;2022-10-13T01:12:21;16.35;;;3.33;;
74335;SDS011;62755;-33.398;-70.572;2022-10-13T01:15:01;18.52;;;3.60;;
74335;SDS011;62755;-33.398;-70.572;2022-10-13T01:17:36;12.70;;;2.70;;
74335;SDS011;62755;-33.398;-70.572;2022-10-13T01:23:33;12.85;;;2.88;;
74335;SDS011;62755;-33.398;-70.572;2022-10-13T01:26:29;12.93;;;3.00;;
74335;SDS011;62755;-33.398;-70.572;2022-10-13T01:29:28;16.42;;;3.63;;
74335;SDS011;62755;-33.398;-70.572;2022-10-13T01:32:21;7.57;;;2.75;;
74335;SDS011;62755;-33.398;-70.572;2022-10-13T01:34:58;12.88;;;3.70;;
74335;SDS011;62755;-33.398;-70.572;2022-10-13T01:37:33;9.05;;;3.60;;
74335;SDS011;62755;-33.398;-70.572;2022-10-13T01:40:11;18.92;;;4.53;;
74335;SDS011;62755;-33.398;-70.572;2022-10-13T01:45:17;14.13;;;4.60;;
74335;SDS011;62755;-33.398;-70.572;2022-10-13T01:47:51;10.15;;;3.60;;
74335;SDS011;62755;-33.398;-70.572;2022-10-13T01:50:21;23.08;;;7.25;;
74335;SDS011;62755;-33.398;-70.572;2022-10-13T01:52:51;16.60;;;5.60;;
74335;SDS011;62755;-33.398;-70.572;2022-10-13T01:55:21;24.67;;;9.77;;
74335;SDS011;62755;-33.398;-70.572;2022-10-13T01:57:51;24.58;;;8.98;;
74335;SDS011;62755;-33.398;-70.572;2022-10-13T02:00:20;25.83;;;6.13;;
74335;SDS011;62755;-33.398;-70.572;2022-10-13T02:02:56;17.75;;;7.57;;
74335;SDS011;62755;-33.398;-70.572;2022-10-13T02:05:35;27.25;;;8.07;;
74335;SDS011;62755;-33.398;-70.572;2022-10-13T02:08:16;42.25;;;12.02;;
74335;SDS011;62755;-33.398;-70.572;2022-10-13T02:10:51;144.00;;;70.05;;
74335;SDS011;62755;-33.398;-70.572;2022-10-13T02:13:26;34.43;;;14.23;;
74335;SDS011;62755;-33.398;-70.572;2022-10-13T02:15:59;36.50;;;11.90;;
74335;SDS011;62755;-33.398;-70.572;2022-10-13T02:18:32;42.92;;;18.23;;
74335;SDS011;62755;-33.398;-70.572;2022-10-13T02:21:03;59.33;;;27.05;;
74335;SDS011;62755;-33.398;-70.572;2022-10-13T02:23:32;68.18;;;31.23;;
74335;SDS011;62755;-33.398;-70.572;2022-10-13T02:26:02;63.83;;;27.38;;
74335;SDS011;62755;-33.398;-70.572;2022-10-13T02:28:32;107.72;;;45.53;;
74335;SDS011;62755;-33.398;-70.572;2022-10-13T02:31:03;54.63;;;25.15;;
74335;SDS011;62755;-33.398;-70.572;2022-10-13T02:33:36;57.30;;;27.20;;
74335;SDS011;62755;-33.398;-70.572;2022-10-13T02:36:05;30.80;;;10.60;;
74335;SDS011;62755;-33.398;-70.572;2022-10-13T02:38:35;55.50;;;23.63;;
74335;SDS011;62755;-33.398;-70.572;2022-10-13T02:41:04;96.90;;;39.63;;
74335;SDS011;62755;-33.398;-70.572;2022-10-13T02:43:34;89.63;;;37.80;;
74335;SDS011;62755;-33.398;-70.572;2022-10-13T02:46:03;63.10;;;26.67;;
74335;SDS011;62755;-33.398;-70.572;2022-10-13T02:48:33;67.38;;;28.27;;
74335;SDS011;62755;-33.398;-70.572;2022-10-13T02:51:05;66.07;;;27.90;;
74335;SDS011;62755;-33.398;-70.572;2022-10-13T02:53:34;85.70;;;37.70;;
74335;SDS011;62755;-33.398;-70.572;2022-10-13T02:56:04;94.60;;;40.78;;
74335;SDS011;62755;-33.398;-70.572;2022-10-13T02:58:34;74.93;;;32.80;;
74335;SDS011;62755;-33.398;-70.572;2022-10-13T03:01:07;152.20;;;67.05;;
74335;SDS011;62755;-33.398;-70.572;2022-10-13T03:03:39;133.05;;;61.25;;
74335;SDS011;62755;-33.398;-70.572;2022-10-13T03:06:09;75.20;;;31.20;;
74335;SDS011;62755;-33.398;-70.572;2022-10-13T03:08:38;117.57;;;49.50;;
74335;SDS011;62755;-33.398;-70.572;2022-10-13T03:11:07;46.45;;;18.50;;
74335;SDS011;62755;-33.398;-70.572;2022-10-13T03:13:38;75.57;;;30.77;;
74335;SDS011;62755;-33.398;-70.572;2022-10-13T03:16:08;150.07;;;62.92;;
74335;SDS011;62755;-33.398;-70.572;2022-10-13T03:18:39;138.50;;;58.70;;
74335;SDS011;62755;-33.398;-70.572;2022-10-13T03:21:08;134.82;;;55.45;;
74335;SDS011;62755;-33.398;-70.572;2022-10-13T03:23:38;71.50;;;27.30;;
74335;SDS011;62755;-33.398;-70.572;2022-10-13T03:26:08;203.63;;;90.25;;
74335;SDS011;62755;-33.398;-70.572;2022-10-13T03:28:37;170.02;;;73.03;;
74335;SDS011;62755;-33.398;-70.572;2022-10-13T03:31:07;99.53;;;40.47;;
74335;SDS011;62755;-33.398;-70.572;2022-10-13T03:33:40;93.18;;;35.88;;
74335;SDS011;62755;-33.398;-70.572;2022-10-13T03:36:11;40.05;;;12.63;;
74335;SDS011;62755;-33.398;-70.572;2022-10-13T03:38:41;28.35;;;5.07;;
74335;SDS011;62755;-33.398;-70.572;2022-10-13T03:41:12;32.85;;;8.57;;
74335;SDS011;62755;-33.398;-70.572;2022-10-13T03:43:43;19.73;;;5.65;;
74335;SDS011;62755;-33.398;-70.572;2022-10-13T03:46:13;16.20;;;2.97;;
74335;SDS011;62755;-33.398;-70.572;2022-10-13T03:48:45;16.00;;;4.03;;
74335;SDS011;62755;-33.398;-70.572;2022-10-13T03:51:15;32.47;;;10.15;;
74335;SDS011;62755;-33.398;-70.572;2022-10-13T03:53:46;32.75;;;9.05;;
74335;SDS011;62755;-33.398;-70.572;2022-10-13T03:56:17;60.63;;;23.05;;
74335;SDS011;62755;-33.398;-70.572;2022-10-13T03:58:49;37.88;;;11.52;;
74335;SDS011;62755;-33.398;-70.572;2022-10-13T04:01:20;61.40;;;21.67;;
74335;SDS011;62755;-33.398;-70.572;2022-10-13T04:03:52;69.95;;;24.75;;
74335;SDS011;62755;-33.398;-70.572;2022-10-13T04:06:23;103.53;;;34.97;;
74335;SDS011;62755;-33.398;-70.572;2022-10-13T04:08:53;95.93;;;31.35;;
74335;SDS011;62755;-33.398;-70.572;2022-10-13T04:11:23;61.60;;;21.85;;
74335;SDS011;62755;-33.398;-70.572;2022-10-13T04:13:53;69.78;;;23.85;;
74335;SDS011;62755;-33.398;-70.572;2022-10-13T04:16:25;66.68;;;23.02;;
74335;SDS011;62755;-33.398;-70.572;2022-10-13T04:18:58;69.55;;;22.17;;
74335;SDS011;62755;-33.398;-70.572;2022-10-13T04:21:28;81.20;;;29.17;;
74335;SDS011;62755;-33.398;-70.572;2022-10-13T04:23:58;51.22;;;18.73;;
74335;SDS011;62755;-33.398;-70.572;2022-10-13T04:26:29;79.25;;;27.98;;
74335;SDS011;62755;-33.398;-70.572;2022-10-13T04:29:00;76.50;;;25.38;;
74335;SDS011;62755;-33.398;-70.572;2022-10-13T04:31:31;45.55;;;13.93;;
74335;SDS011;62755;-33.398;-70.572;2022-10-13T04:34:02;48.25;;;17.80;;
74335;SDS011;62755;-33.398;-70.572;2022-10-13T04:36:32;54.97;;;20.15;;
74335;SDS011;62755;-33.398;-70.572;2022-10-13T04:39:02;41.25;;;17.30;;
74335;SDS011;62755;-33.398;-70.572;2022-10-13T04:41:32;38.00;;;12.82;;
74335;SDS011;62755;-33.398;-70.572;2022-10-13T04:44:01;36.38;;;12.52;;
74335;SDS011;62755;-33.398;-70.572;2022-10-13T04:46:31;31.55;;;13.00;;
74335;SDS011;62755;-33.398;-70.572;2022-10-13T04:49:02;40.85;;;13.95;;
74335;SDS011;62755;-33.398;-70.572;2022-10-13T04:51:31;29.52;;;10.70;;
74335;SDS011;62755;-33.398;-70.572;2022-10-13T04:54:01;31.55;;;12.00;;
74335;SDS011;62755;-33.398;-70.572;2022-10-13T04:56:31;22.55;;;8.52;;
74335;SDS011;62755;-33.398;-70.572;2022-10-13T04:59:01;21.63;;;7.78;;
74335;SDS011;62755;-33.398;-70.572;2022-10-13T05:01:31;17.85;;;6.13;;
74335;SDS011;62755;-33.398;-70.572;2022-10-13T05:04:03;22.65;;;6.45;;
74335;SDS011;62755;-33.398;-70.572;2022-10-13T05:06:33;17.67;;;6.53;;
74335;SDS011;62755;-33.398;-70.572;2022-10-13T05:09:04;23.40;;;7.80;;
74335;SDS011;62755;-33.398;-70.572;2022-10-13T05:11:33;16.85;;;7.15;;
74335;SDS011;62755;-33.398;-70.572;2022-10-13T05:14:03;20.73;;;5.97;;
74335;SDS011;62755;-33.398;-70.572;2022-10-13T05:16:32;15.18;;;5.85;;
74335;SDS011;62755;-33.398;-70.572;2022-10-13T05:19:04;15.55;;;4.88;;
74335;SDS011;62755;-33.398;-70.572;2022-10-13T05:21:33;13.90;;;4.85;;
74335;SDS011;62755;-33.398;-70.572;2022-10-13T05:24:03;8.68;;;4.85;;
74335;SDS011;62755;-33.398;-70.572;2022-10-13T05:26:38;12.27;;;4.93;;
74335;SDS011;62755;-33.398;-70.572;2022-10-13T05:29:07;18.52;;;4.75;;
74335;SDS011;62755;-33.398;-70.572;2022-10-13T05:31:37;19.60;;;4.25;;
74335;SDS011;62755;-33.398;-70.572;2022-10-13T05:34:09;16.75;;;5.13;;
74335;SDS011;62755;-33.398;-70.572;2022-10-13T05:36:39;13.30;;;4.80;;
74335;SDS011;62755;-33.398;-70.572;2022-10-13T05:39:09;15.77;;;5.22;;
74335;SDS011;62755;-33.398;-70.572;2022-10-13T05:41:38;15.77;;;5.13;;
74335;SDS011;62755;-33.398;-70.572;2022-10-13T05:44:08;13.77;;;5.30;;
74335;SDS011;62755;-33.398;-70.572;2022-10-13T05:46:37;21.38;;;5.65;;
74335;SDS011;62755;-33.398;-70.572;2022-10-13T05:49:07;16.25;;;5.28;;
74335;SDS011;62755;-33.398;-70.572;2022-10-13T05:51:38;13.30;;;4.60;;
74335;SDS011;62755;-33.398;-70.572;2022-10-13T05:54:13;16.33;;;5.55;;
74335;SDS011;62755;-33.398;-70.572;2022-10-13T05:56:45;17.58;;;6.03;;
74335;SDS011;62755;-33.398;-70.572;2022-10-13T05:59:18;10.50;;;5.15;;
74335;SDS011;62755;-33.398;-70.572;2022-10-13T06:01:50;12.30;;;5.00;;
74335;SDS011;62755;-33.398;-70.572;2022-10-13T06:04:22;17.67;;;5.20;;
74335;SDS011;62755;-33.398;-70.572;2022-10-13T06:06:57;20.70;;;4.90;;
74335;SDS011;62755;-33.398;-70.572;2022-10-13T06:09:27;16.17;;;4.07;;
74335;SDS011;62755;-33.398;-70.572;2022-10-13T06:12:00;18.75;;;4.70;;
74335;SDS011;62755;-33.398;-70.572;2022-10-13T06:14:30;9.85;;;4.57;;
74335;SDS011;62755;-33.398;-70.572;2022-10-13T06:17:00;20.02;;;4.50;;
74335;SDS011;62755;-33.398;-70.572;2022-10-13T06:19:31;11.10;;;4.45;;
74335;SDS011;62755;-33.398;-70.572;2022-10-13T06:22:01;17.00;;;5.25;;
74335;SDS011;62755;-33.398;-70.572;2022-10-13T06:24:30;8.07;;;4.60;;
74335;SDS011;62755;-33.398;-70.572;2022-10-13T06:27:00;21.20;;;4.43;;
74335;SDS011;62755;-33.398;-70.572;2022-10-13T06:29:29;17.63;;;5.13;;
74335;SDS011;62755;-33.398;-70.572;2022-10-13T06:31:59;16.65;;;5.40;;
74335;SDS011;62755;-33.398;-70.572;2022-10-13T06:34:29;22.05;;;5.32;;
74335;SDS011;62755;-33.398;-70.572;2022-10-13T06:37:00;11.80;;;4.50;;
74335;SDS011;62755;-33.398;-70.572;2022-10-13T06:39:29;26.30;;;5.25;;
74335;SDS011;62755;-33.398;-70.572;2022-10-13T06:41:59;15.68;;;5.05;;
74335;SDS011;62755;-33.398;-70.572;2022-10-13T06:44:29;12.48;;;5.22;;
74335;SDS011;62755;-33.398;-70.572;2022-10-13T06:46:59;11.23;;;4.65;;
74335;SDS011;62755;-33.398;-70.572;2022-10-13T06:49:29;15.88;;;4.53;;
74335;SDS011;62755;-33.398;-70.572;2022-10-13T06:52:00;30.83;;;4.55;;
74335;SDS011;62755;-33.398;-70.572;2022-10-13T06:54:30;12.27;;;4.22;;
74335;SDS011;62755;-33.398;-70.572;2022-10-13T06:57:00;16.05;;;5.05;;
74335;SDS011;62755;-33.398;-70.572;2022-10-13T06:59:32;11.45;;;4.53;;
74335;SDS011;62755;-33.398;-70.572;2022-10-13T07:02:01;16.70;;;5.15;;
74335;SDS011;62755;-33.398;-70.572;2022-10-13T07:04:33;19.27;;;4.57;;
74335;SDS011;62755;-33.398;-70.572;2022-10-13T07:07:02;10.57;;;4.10;;
74335;SDS011;62755;-33.398;-70.572;2022-10-13T07:09:31;11.73;;;4.50;;
74335;SDS011;62755;-33.398;-70.572;2022-10-13T07:12:01;11.88;;;3.83;;
74335;SDS011;62755;-33.398;-70.572;2022-10-13T07:14:32;23.52;;;4.40;;
74335;SDS011;62755;-33.398;-70.572;2022-10-13T07:17:01;16.15;;;3.95;;
74335;SDS011;62755;-33.398;-70.572;2022-10-13T07:19:33;16.13;;;4.43;;
74335;SDS011;62755;-33.398;-70.572;2022-10-13T07:22:02;13.98;;;4.63;;
74335;SDS011;62755;-33.398;-70.572;2022-10-13T07:24:32;15.50;;;4.78;;
74335;SDS011;62755;-33.398;-70.572;2022-10-13T07:27:01;15.52;;;4.70;;
74335;SDS011;62755;-33.398;-70.572;2022-10-13T07:29:31;17.40;;;4.38;;
74335;SDS011;62755;-33.398;-70.572;2022-10-13T07:32:00;14.93;;;4.70;;
74335;SDS011;62755;-33.398;-70.572;2022-10-13T07:34:30;20.70;;;4.57;;
74335;SDS011;62755;-33.398;-70.572;2022-10-13T07:37:02;11.05;;;4.70;;
74335;SDS011;62755;-33.398;-70.572;2022-10-13T07:39:32;11.98;;;4.95;;
74335;SDS011;62755;-33.398;-70.572;2022-10-13T07:42:01;13.38;;;5.10;;
74335;SDS011;62755;-33.398;-70.572;2022-10-13T07:44:31;24.20;;;4.60;;
74335;SDS011;62755;-33.398;-70.572;2022-10-13T07:47:00;13.40;;;5.32;;
74335;SDS011;62755;-33.398;-70.572;2022-10-13T07:49:30;19.50;;;5.03;;
74335;SDS011;62755;-33.398;-70.572;2022-10-13T07:52:00;28.17;;;5.93;;
74335;SDS011;62755;-33.398;-70.572;2022-10-13T07:54:31;13.77;;;5.18;;
74335;SDS011;62755;-33.398;-70.572;2022-10-13T07:57:00;11.27;;;5.18;;
74335;SDS011;62755;-33.398;-70.572;2022-10-13T07:59:31;18.73;;;5.15;;
74335;SDS011;62755;-33.398;-70.572;2022-10-13T08:02:00;12.90;;;5.45;;
74335;SDS011;62755;-33.398;-70.572;2022-10-13T08:04:30;12.90;;;4.70;;
74335;SDS011;62755;-33.398;-70.572;2022-10-13T08:07:03;14.77;;;5.95;;
74335;SDS011;62755;-33.398;-70.572;2022-10-13T08:09:33;14.02;;;5.10;;
74335;SDS011;62755;-33.398;-70.572;2022-10-13T08:12:03;14.43;;;5.00;;
74335;SDS011;62755;-33.398;-70.572;2022-10-13T08:14:32;12.35;;;5.20;;
74335;SDS011;62755;-33.398;-70.572;2022-10-13T08:17:02;13.25;;;5.03;;
74335;SDS011;62755;-33.398;-70.572;2022-10-13T08:19:31;16.80;;;5.65;;
74335;SDS011;62755;-33.398;-70.572;2022-10-13T08:22:03;10.65;;;4.97;;
74335;SDS011;62755;-33.398;-70.572;2022-10-13T08:24:32;12.93;;;5.00;;
74335;SDS011;62755;-33.398;-70.572;2022-10-13T08:27:02;17.25;;;4.90;;
74335;SDS011;62755;-33.398;-70.572;2022-10-13T08:29:31;24.25;;;5.57;;
74335;SDS011;62755;-33.398;-70.572;2022-10-13T08:32:01;15.82;;;5.45;;
74335;SDS011;62755;-33.398;-70.572;2022-10-13T08:34:30;14.00;;;6.28;;
74335;SDS011;62755;-33.398;-70.572;2022-10-13T08:37:03;14.35;;;6.32;;
74335;SDS011;62755;-33.398;-70.572;2022-10-13T08:39:32;12.25;;;5.70;;
74335;SDS011;62755;-33.398;-70.572;2022-10-13T08:42:02;23.90;;;8.82;;
74335;SDS011;62755;-33.398;-70.572;2022-10-13T08:44:40;14.73;;;5.47;;
74335;SDS011;62755;-33.398;-70.572;2022-10-13T08:47:14;23.15;;;5.75;;
74335;SDS011;62755;-33.398;-70.572;2022-10-13T08:49:51;14.15;;;6.45;;
74335;SDS011;62755;-33.398;-70.572;2022-10-13T08:52:24;18.73;;;5.65;;
74335;SDS011;62755;-33.398;-70.572;2022-10-13T08:54:55;16.35;;;6.35;;
74335;SDS011;62755;-33.398;-70.572;2022-10-13T08:57:24;15.30;;;6.00;;
74335;SDS011;62755;-33.398;-70.572;2022-10-13T08:59:54;19.48;;;7.78;;
74335;SDS011;62755;-33.398;-70.572;2022-10-13T09:02:24;16.05;;;7.43;;
74335;SDS011;62755;-33.398;-70.572;2022-10-13T09:04:57;15.18;;;6.90;;
74335;SDS011;62755;-33.398;-70.572;2022-10-13T09:07:32;13.95;;;5.85;;
74335;SDS011;62755;-33.398;-70.572;2022-10-13T09:10:03;17.55;;;5.53;;
74335;SDS011;62755;-33.398;-70.572;2022-10-13T09:12:34;20.00;;;6.25;;
74335;SDS011;62755;-33.398;-70.572;2022-10-13T09:15:04;13.10;;;5.25;;
74335;SDS011;62755;-33.398;-70.572;2022-10-13T09:17:35;13.30;;;5.60;;
74335;SDS011;62755;-33.398;-70.572;2022-10-13T09:20:05;16.52;;;7.03;;
74335;SDS011;62755;-33.398;-70.572;2022-10-13T09:22:58;15.00;;;5.32;;
74335;SDS011;62755;-33.398;-70.572;2022-10-13T09:25:30;14.07;;;5.40;;
74335;SDS011;62755;-33.398;-70.572;2022-10-13T09:28:13;10.52;;;5.57;;
74335;SDS011;62755;-33.398;-70.572;2022-10-13T09:30:46;13.85;;;5.93;;
74335;SDS011;62755;-33.398;-70.572;2022-10-13T09:33:25;14.27;;;5.07;;
74335;SDS011;62755;-33.398;-70.572;2022-10-13T09:36:08;10.43;;;4.95;;
74335;SDS011;62755;-33.398;-70.572;2022-10-13T09:38:43;16.65;;;5.93;;
74335;SDS011;62755;-33.398;-70.572;2022-10-13T09:41:31;24.42;;;6.85;;
74335;SDS011;62755;-33.398;-70.572;2022-10-13T09:44:10;12.68;;;5.90;;
74335;SDS011;62755;-33.398;-70.572;2022-10-13T09:46:45;17.20;;;5.63;;
74335;SDS011;62755;-33.398;-70.572;2022-10-13T09:49:25;11.50;;;5.38;;
74335;SDS011;62755;-33.398;-70.572;2022-10-13T09:52:02;18.27;;;5.55;;
74335;SDS011;62755;-33.398;-70.572;2022-10-13T09:54:39;19.00;;;5.60;;
74335;SDS011;62755;-33.398;-70.572;2022-10-13T09:57:14;13.68;;;6.10;;
74335;SDS011;62755;-33.398;-70.572;2022-10-13T09:59:57;22.77;;;6.57;;
74335;SDS011;62755;-33.398;-70.572;2022-10-13T10:02:40;28.27;;;7.75;;
74335;SDS011;62755;-33.398;-70.572;2022-10-13T10:05:16;35.92;;;7.57;;
74335;SDS011;62755;-33.398;-70.572;2022-10-13T10:07:51;21.77;;;8.40;;
74335;SDS011;62755;-33.398;-70.572;2022-10-13T10:10:28;28.17;;;8.40;;
74335;SDS011;62755;-33.398;-70.572;2022-10-13T10:13:01;25.83;;;7.63;;
74335;SDS011;62755;-33.398;-70.572;2022-10-13T10:15:32;28.75;;;6.95;;
74335;SDS011;62755;-33.398;-70.572;2022-10-13T10:18:11;36.80;;;8.10;;
74335;SDS011;62755;-33.398;-70.572;2022-10-13T10:20:47;25.80;;;6.93;;
74335;SDS011;62755;-33.398;-70.572;2022-10-13T10:23:26;16.45;;;6.10;;
74335;SDS011;62755;-33.398;-70.572;2022-10-13T10:26:05;16.60;;;5.57;;
74335;SDS011;62755;-33.398;-70.572;2022-10-13T10:31:42;10.25;;;4.45;;
74335;SDS011;62755;-33.398;-70.572;2022-10-13T10:34:26;14.70;;;4.80;;
74335;SDS011;62755;-33.398;-70.572;2022-10-13T10:37:15;24.65;;;5.45;;
74335;SDS011;62755;-33.398;-70.572;2022-10-13T10:39:55;17.70;;;5.05;;
74335;SDS011;62755;-33.398;-70.572;2022-10-13T10:42:50;17.67;;;5.50;;
74335;SDS011;62755;-33.398;-70.572;2022-10-13T10:45:30;18.77;;;4.97;;
74335;SDS011;62755;-33.398;-70.572;2022-10-13T10:48:06;15.80;;;5.30;;
74335;SDS011;62755;-33.398;-70.572;2022-10-13T10:50:45;22.85;;;6.43;;
74335;SDS011;62755;-33.398;-70.572;2022-10-13T10:53:16;20.30;;;5.70;;
74335;SDS011;62755;-33.398;-70.572;2022-10-13T10:55:56;17.85;;;5.78;;
74335;SDS011;62755;-33.398;-70.572;2022-10-13T10:58:35;19.48;;;4.82;;
74335;SDS011;62755;-33.398;-70.572;2022-10-13T11:01:14;22.60;;;5.25;;
74335;SDS011;62755;-33.398;-70.572;2022-10-13T11:03:54;16.30;;;5.70;;
74335;SDS011;62755;-33.398;-70.572;2022-10-13T11:06:33;29.33;;;5.78;;
74335;SDS011;62755;-33.398;-70.572;2022-10-13T11:09:04;18.73;;;6.40;;
74335;SDS011;62755;-33.398;-70.572;2022-10-13T11:11:35;19.77;;;5.63;;
74335;SDS011;62755;-33.398;-70.572;2022-10-13T11:14:22;17.60;;;5.35;;
74335;SDS011;62755;-33.398;-70.572;2022-10-13T11:19:55;24.48;;;6.03;;
74335;SDS011;62755;-33.398;-70.572;2022-10-13T11:22:25;16.63;;;5.47;;
74335;SDS011;62755;-33.398;-70.572;2022-10-13T11:24:56;21.80;;;5.68;;
74335;SDS011;62755;-33.398;-70.572;2022-10-13T11:27:38;18.70;;;6.50;;
74335;SDS011;62755;-33.398;-70.572;2022-10-13T11:36:44;24.60;;;7.20;;
74335;SDS011;62755;-33.398;-70.572;2022-10-13T11:48:56;23.90;;;8.07;;
74335;SDS011;62755;-33.398;-70.572;2022-10-13T11:51:52;26.33;;;8.77;;
74335;SDS011;62755;-33.398;-70.572;2022-10-13T11:54:34;18.90;;;8.43;;
74335;SDS011;62755;-33.398;-70.572;2022-10-13T11:57:16;24.08;;;9.85;;
74335;SDS011;62755;-33.398;-70.572;2022-10-13T11:59:47;31.42;;;9.65;;
74335;SDS011;62755;-33.398;-70.572;2022-10-13T12:02:22;26.73;;;9.25;;
74335;SDS011;62755;-33.398;-70.572;2022-10-13T12:04:59;31.15;;;9.13;;
74335;SDS011;62755;-33.398;-70.572;2022-10-13T12:07:31;22.00;;;9.48;;
74335;SDS011;62755;-33.398;-70.572;2022-10-13T12:10:03;26.58;;;10.07;;
74335;SDS011;62755;-33.398;-70.572;2022-10-13T12:12:35;21.50;;;9.27;;
74335;SDS011;62755;-33.398;-70.572;2022-10-13T12:17:58;19.67;;;9.65;;
74335;SDS011;62755;-33.398;-70.572;2022-10-13T12:20:28;29.63;;;11.02;;
74335;SDS011;62755;-33.398;-70.572;2022-10-13T12:22:59;22.10;;;10.25;;
74335;SDS011;62755;-33.398;-70.572;2022-10-13T12:25:28;30.27;;;11.20;;
74335;SDS011;62755;-33.398;-70.572;2022-10-13T12:27:59;28.90;;;11.93;;
74335;SDS011;62755;-33.398;-70.572;2022-10-13T12:30:29;26.92;;;11.98;;
74335;SDS011;62755;-33.398;-70.572;2022-10-13T12:33:03;33.22;;;12.30;;
74335;SDS011;62755;-33.398;-70.572;2022-10-13T12:35:47;33.33;;;12.07;;
74335;SDS011;62755;-33.398;-70.572;2022-10-13T12:38:18;34.80;;;13.05;;
74335;SDS011;62755;-33.398;-70.572;2022-10-13T12:40:48;42.70;;;12.35;;
74335;SDS011;62755;-33.398;-70.572;2022-10-13T12:43:21;34.78;;;11.45;;
74335;SDS011;62755;-33.398;-70.572;2022-10-13T12:45:52;26.33;;;11.20;;
74335;SDS011;62755;-33.398;-70.572;2022-10-13T12:48:30;32.20;;;10.85;;
74335;SDS011;62755;-33.398;-70.572;2022-10-13T12:53:53;31.60;;;11.43;;
74335;SDS011;62755;-33.398;-70.572;2022-10-13T12:56:27;32.33;;;11.43;;
74335;SDS011;62755;-33.398;-70.572;2022-10-13T12:58:57;26.10;;;11.43;;
74335;SDS011;62755;-33.398;-70.572;2022-10-13T13:01:29;26.30;;;11.25;;
74335;SDS011;62755;-33.398;-70.572;2022-10-13T13:04:14;33.72;;;12.95;;
74335;SDS011;62755;-33.398;-70.572;2022-10-13T13:06:52;22.75;;;11.50;;
74335;SDS011;62755;-33.398;-70.572;2022-10-13T13:09:24;42.25;;;12.20;;
74335;SDS011;62755;-33.398;-70.572;2022-10-13T13:14:53;32.35;;;11.13;;
74335;SDS011;62755;-33.398;-70.572;2022-10-13T13:17:27;31.33;;;11.13;;
74335;SDS011;62755;-33.398;-70.572;2022-10-13T13:20:00;32.60;;;10.30;;
74335;SDS011;62755;-33.398;-70.572;2022-10-13T13:22:45;31.58;;;9.13;;
74335;SDS011;62755;-33.398;-70.572;2022-10-13T13:25:15;35.97;;;9.43;;
74335;SDS011;62755;-33.398;-70.572;2022-10-13T13:27:45;30.98;;;9.52;;
74335;SDS011;62755;-33.398;-70.572;2022-10-13T13:30:15;29.75;;;9.68;;
74335;SDS011;62755;-33.398;-70.572;2022-10-13T13:32:46;26.67;;;10.35;;
74335;SDS011;62755;-33.398;-70.572;2022-10-13T13:35:17;27.20;;;10.63;;
74335;SDS011;62755;-33.398;-70.572;2022-10-13T13:37:47;44.15;;;11.13;;
74335;SDS011;62755;-33.398;-70.572;2022-10-13T13:40:18;26.88;;;10.85;;
74335;SDS011;62755;-33.398;-70.572;2022-10-13T13:42:49;22.20;;;11.25;;
74335;SDS011;62755;-33.398;-70.572;2022-10-13T13:45:18;30.98;;;11.05;;
74335;SDS011;62755;-33.398;-70.572;2022-10-13T13:47:49;34.00;;;11.18;;
74335;SDS011;62755;-33.398;-70.572;2022-10-13T13:50:21;27.92;;;11.18;;
74335;SDS011;62755;-33.398;-70.572;2022-10-13T13:52:51;23.48;;;10.10;;
74335;SDS011;62755;-33.398;-70.572;2022-10-13T13:55:21;24.48;;;12.43;;
74335;SDS011;62755;-33.398;-70.572;2022-10-13T13:57:50;23.77;;;11.52;;
74335;SDS011;62755;-33.398;-70.572;2022-10-13T14:00:20;27.90;;;12.25;;
74335;SDS011;62755;-33.398;-70.572;2022-10-13T14:02:50;35.58;;;11.63;;
74335;SDS011;62755;-33.398;-70.572;2022-10-13T14:05:21;35.75;;;11.70;;
74335;SDS011;62755;-33.398;-70.572;2022-10-13T14:07:52;28.27;;;12.38;;
74335;SDS011;62755;-33.398;-70.572;2022-10-13T14:10:22;27.83;;;11.40;;
74335;SDS011;62755;-33.398;-70.572;2022-10-13T14:12:54;30.08;;;10.90;;
74335;SDS011;62755;-33.398;-70.572;2022-10-13T14:15:23;29.70;;;11.15;;
74335;SDS011;62755;-33.398;-70.572;2022-10-13T14:17:53;31.40;;;11.73;;
74335;SDS011;62755;-33.398;-70.572;2022-10-13T14:20:24;34.70;;;12.20;;
74335;SDS011;62755;-33.398;-70.572;2022-10-13T14:22:54;32.28;;;12.10;;
74335;SDS011;62755;-33.398;-70.572;2022-10-13T14:25:23;37.08;;;12.68;;
74335;SDS011;62755;-33.398;-70.572;2022-10-13T14:27:52;33.60;;;14.48;;
74335;SDS011;62755;-33.398;-70.572;2022-10-13T14:30:22;34.33;;;14.82;;
74335;SDS011;62755;-33.398;-70.572;2022-10-13T14:32:51;35.22;;;17.83;;
74335;SDS011;62755;-33.398;-70.572;2022-10-13T14:35:21;40.63;;;16.15;;
74335;SDS011;62755;-33.398;-70.572;2022-10-13T14:37:52;39.20;;;16.08;;
74335;SDS011;62755;-33.398;-70.572;2022-10-13T14:40:21;27.50;;;13.48;;
74335;SDS011;62755;-33.398;-70.572;2022-10-13T14:42:51;43.90;;;12.00;;
74335;SDS011;62755;-33.398;-70.572;2022-10-13T14:45:21;32.95;;;13.30;;
74335;SDS011;62755;-33.398;-70.572;2022-10-13T14:47:51;28.92;;;14.90;;
74335;SDS011;62755;-33.398;-70.572;2022-10-13T14:50:20;29.48;;;14.55;;
74335;SDS011;62755;-33.398;-70.572;2022-10-13T14:52:51;30.30;;;12.70;;
74335;SDS011;62755;-33.398;-70.572;2022-10-13T14:55:21;30.58;;;14.30;;
74335;SDS011;62755;-33.398;-70.572;2022-10-13T14:57:50;32.90;;;14.80;;
74335;SDS011;62755;-33.398;-70.572;2022-10-13T15:00:20;27.92;;;14.60;;